createdAt,value
2018-09-19T00:00:19.540Z,0
2018-09-19T00:01:29.447Z,0
2018-09-19T00:02:39.035Z,0
2018-09-19T00:03:49.161Z,0
2018-09-19T00:04:59.026Z,0
2018-09-19T00:06:08.603Z,0
2018-09-19T00:07:17.915Z,0
2018-09-19T00:08:28.032Z,0
2018-09-19T00:09:38.155Z,0
2018-09-19T00:10:47.993Z,0
2018-09-19T00:11:57.571Z,0
2018-09-19T00:13:07.691Z,0
2018-09-19T00:14:17.812Z,0
2018-09-19T00:15:27.941Z,0
2018-09-19T00:16:38.070Z,0
2018-09-19T00:17:48.197Z,0
2018-09-19T00:18:58.040Z,0
2018-09-19T00:20:08.347Z,0
2018-09-19T00:21:18.282Z,0
2018-09-19T00:22:28.519Z,0
2018-09-19T00:23:38.677Z,0
2018-09-19T00:24:48.527Z,0
2018-09-19T00:25:57.829Z,0
2018-09-19T00:27:07.951Z,0
2018-09-19T00:28:17.799Z,0
2018-09-19T00:29:27.848Z,0
2018-09-19T00:30:37.729Z,0
2018-09-19T00:31:47.579Z,0
2018-09-19T00:32:57.694Z,0
2018-09-19T00:34:07.539Z,0
2018-09-19T00:35:17.407Z,0
2018-09-19T00:36:27.288Z,0
2018-09-19T00:37:37.129Z,0
2018-09-19T00:38:47.223Z,0
2018-09-19T00:39:57.361Z,0
2018-09-19T00:41:07.211Z,0
2018-09-19T00:42:17.068Z,0
2018-09-19T00:43:26.924Z,0
2018-09-19T00:44:36.781Z,0
2018-09-19T00:45:46.683Z,0
2018-09-19T00:46:56.593Z,0
2018-09-19T00:48:06.459Z,0
2018-09-19T00:49:16.572Z,0
2018-09-19T00:50:26.211Z,0
2018-09-19T00:51:36.099Z,0
2018-09-19T00:52:46.269Z,0
2018-09-19T00:53:56.130Z,0
2018-09-19T00:55:05.984Z,0
2018-09-19T00:56:16.117Z,0
2018-09-19T00:57:25.970Z,0
2018-09-19T00:58:35.841Z,0
2018-09-19T00:59:45.692Z,0
2018-09-19T01:00:55.823Z,0
2018-09-19T01:02:05.993Z,0
2018-09-19T01:03:16.108Z,0
2018-09-19T01:04:25.967Z,0
2018-09-19T01:05:36.227Z,0
2018-09-19T01:06:46.087Z,0
2018-09-19T01:07:56.241Z,0
2018-09-19T01:09:06.080Z,0
2018-09-19T01:10:15.931Z,0
2018-09-19T01:11:25.780Z,0
2018-09-19T01:12:35.361Z,0
2018-09-19T01:13:45.227Z,0
2018-09-19T01:14:55.079Z,0
2018-09-19T01:16:04.929Z,0
2018-09-19T01:17:14.808Z,0
2018-09-19T01:18:24.939Z,0
2018-09-19T01:19:34.859Z,0
2018-09-19T01:20:44.436Z,0
2018-09-19T01:21:54.557Z,0
2018-09-19T01:23:04.690Z,0
2018-09-19T01:24:14.814Z,0
2018-09-19T01:25:24.384Z,0
2018-09-19T01:26:34.231Z,0
2018-09-19T01:27:44.354Z,0
2018-09-19T01:28:53.967Z,0
2018-09-19T01:30:04.113Z,0
2018-09-19T01:31:14.039Z,0
2018-09-19T01:32:23.613Z,0
2018-09-19T01:33:32.926Z,0
2018-09-19T01:34:43.056Z,0
2018-09-19T01:35:52.910Z,0
2018-09-19T01:37:02.760Z,0
2018-09-19T01:38:12.322Z,0
2018-09-19T01:39:22.161Z,0
2018-09-19T01:40:32.306Z,0
2018-09-19T01:41:42.223Z,0
2018-09-19T01:42:52.357Z,0
2018-09-19T01:44:02.201Z,0
2018-09-19T01:45:11.788Z,0
2018-09-19T01:46:21.363Z,0
2018-09-19T01:47:30.937Z,0
2018-09-19T01:48:40.516Z,0
2018-09-19T01:49:50.093Z,0
2018-09-19T01:51:00.237Z,0
2018-09-19T01:52:10.122Z,0
2018-09-19T01:53:20.298Z,0
2018-09-19T01:54:30.151Z,0
2018-09-19T01:55:39.460Z,0
2018-09-19T01:56:49.335Z,0
2018-09-19T01:57:58.926Z,0
2018-09-19T01:59:08.778Z,0
2018-09-19T02:00:18.685Z,0
2018-09-19T02:01:28.258Z,0
2018-09-19T02:02:38.102Z,0
2018-09-19T02:03:48.290Z,0
2018-09-19T02:04:58.140Z,0
2018-09-19T02:06:07.990Z,0
2018-09-19T02:07:17.559Z,0
2018-09-19T02:08:27.455Z,0
2018-09-19T02:09:37.320Z,0
2018-09-19T02:10:47.197Z,0
2018-09-19T02:11:57.385Z,0
2018-09-19T02:13:07.516Z,0
2018-09-19T02:14:17.352Z,0
2018-09-19T02:15:27.193Z,0
2018-09-19T02:16:37.383Z,0
2018-09-19T02:17:47.273Z,0
2018-09-19T02:18:57.131Z,0
2018-09-19T02:20:06.437Z,0
2018-09-19T02:21:16.299Z,0
2018-09-19T02:22:26.407Z,0
2018-09-19T02:23:36.293Z,0
2018-09-19T02:24:46.650Z,0
2018-09-19T02:25:56.502Z,0
2018-09-19T02:27:06.632Z,0
2018-09-19T02:28:16.750Z,0
2018-09-19T02:29:26.940Z,0
2018-09-19T02:30:37.089Z,0
2018-09-19T02:31:47.243Z,0
2018-09-19T02:32:56.875Z,0
2018-09-19T02:34:07.001Z,0
2018-09-19T02:35:17.257Z,0
2018-09-19T02:36:27.434Z,0
2018-09-19T02:37:37.267Z,0
2018-09-19T02:38:47.399Z,0
2018-09-19T02:39:57.254Z,0
2018-09-19T02:41:06.853Z,0
2018-09-19T02:42:16.984Z,0
2018-09-19T02:43:27.124Z,0
2018-09-19T02:44:36.995Z,0
2018-09-19T02:45:46.851Z,0
2018-09-19T02:46:56.711Z,0
2018-09-19T02:48:06.575Z,0
2018-09-19T02:49:16.712Z,0
2018-09-19T02:50:26.636Z,0
2018-09-19T02:51:36.781Z,0
2018-09-19T02:52:46.916Z,0
2018-09-19T02:53:56.545Z,0
2018-09-19T02:55:06.690Z,0
2018-09-19T02:56:16.288Z,0
2018-09-19T02:57:26.151Z,0
2018-09-19T02:58:36.008Z,0
2018-09-19T02:59:46.181Z,0
2018-09-19T03:00:56.040Z,0
2018-09-19T03:02:05.971Z,0
2018-09-19T03:03:15.277Z,0
2018-09-19T03:04:24.907Z,0
2018-09-19T03:05:35.030Z,0
2018-09-19T03:06:45.161Z,0
2018-09-19T03:07:55.009Z,0
2018-09-19T03:09:04.915Z,0
2018-09-19T03:10:15.063Z,0
2018-09-19T03:11:24.907Z,0
2018-09-19T03:12:34.779Z,0
2018-09-19T03:13:44.641Z,0
2018-09-19T03:14:54.497Z,0
2018-09-19T03:16:04.349Z,0
2018-09-19T03:17:14.578Z,0
2018-09-19T03:18:24.902Z,0
2018-09-19T03:19:34.759Z,0
2018-09-19T03:20:44.605Z,0
2018-09-19T03:21:54.466Z,0
2018-09-19T03:23:04.053Z,0
2018-09-19T03:24:14.233Z,0
2018-09-19T03:25:24.369Z,0
2018-09-19T03:26:34.222Z,0
2018-09-19T03:27:43.826Z,0
2018-09-19T03:28:53.954Z,0
2018-09-19T03:30:03.795Z,0
2018-09-19T03:31:13.399Z,0
2018-09-19T03:32:23.313Z,0
2018-09-19T03:33:33.123Z,0
2018-09-19T03:34:42.999Z,0
2018-09-19T03:35:52.579Z,0
2018-09-19T03:37:02.693Z,0
2018-09-19T03:38:12.886Z,0
2018-09-19T03:39:23.029Z,0
2018-09-19T03:40:32.954Z,0
2018-09-19T03:41:42.818Z,0
2018-09-19T03:42:52.702Z,0
2018-09-19T03:44:02.282Z,0
2018-09-19T03:45:11.874Z,0
2018-09-19T03:46:21.733Z,0
2018-09-19T03:47:31.595Z,0
2018-09-19T03:48:41.707Z,0
2018-09-19T03:49:51.864Z,0
2018-09-19T03:51:01.710Z,0
2018-09-19T03:52:11.553Z,0
2018-09-19T03:53:21.130Z,0
2018-09-19T03:54:30.433Z,0
2018-09-19T03:55:40.190Z,0
2018-09-19T03:56:50.063Z,0
2018-09-19T03:58:00.289Z,0
2018-09-19T03:59:10.234Z,0
2018-09-19T04:00:20.096Z,0
2018-09-19T04:01:30.225Z,0
2018-09-19T04:02:40.123Z,0
2018-09-19T04:03:50.006Z,0
2018-09-19T04:04:59.892Z,0
2018-09-19T04:06:09.465Z,0
2018-09-19T04:07:19.040Z,0
2018-09-19T04:08:29.205Z,0
2018-09-19T04:09:38.791Z,0
2018-09-19T04:10:48.631Z,0
2018-09-19T04:11:58.486Z,0
2018-09-19T04:13:08.383Z,0
2018-09-19T04:14:18.286Z,0
2018-09-19T04:15:28.414Z,0
2018-09-19T04:16:38.463Z,0
2018-09-19T04:17:48.806Z,0
2018-09-19T04:18:58.805Z,0
2018-09-19T04:20:08.681Z,0
2018-09-19T04:21:18.563Z,0
2018-09-19T04:22:28.421Z,0
2018-09-19T04:23:38.277Z,0
2018-09-19T04:24:48.398Z,0
2018-09-19T04:25:58.236Z,0
2018-09-19T04:27:08.351Z,0
2018-09-19T04:28:18.538Z,0
2018-09-19T04:29:28.606Z,0
2018-09-19T04:30:38.699Z,0
2018-09-19T04:31:48.816Z,0
2018-09-19T04:32:58.958Z,0
2018-09-19T04:34:08.534Z,0
2018-09-19T04:35:18.664Z,4
2018-09-19T04:36:28.515Z,0
2018-09-19T04:37:38.423Z,4
2018-09-19T04:38:48.566Z,4
2018-09-19T04:39:57.871Z,4
2018-09-19T04:41:07.723Z,4
2018-09-19T04:42:17.563Z,8
2018-09-19T04:43:27.406Z,8
2018-09-19T04:44:37.031Z,12
2018-09-19T04:45:46.889Z,12
2018-09-19T04:46:57.018Z,12
2018-09-19T04:48:06.868Z,20
2018-09-19T04:49:17.005Z,20
2018-09-19T04:50:27.147Z,24
2018-09-19T04:51:37.405Z,28
2018-09-19T04:52:47.314Z,32
2018-09-19T04:53:56.924Z,40
2018-09-19T04:55:06.776Z,44
2018-09-19T04:56:16.633Z,52
2018-09-19T04:57:26.549Z,64
2018-09-19T04:58:36.681Z,76
2018-09-19T04:59:46.538Z,84
2018-09-19T05:00:56.384Z,96
2018-09-19T05:02:05.691Z,112
2018-09-19T05:03:15.848Z,128
2018-09-19T05:04:25.155Z,140
2018-09-19T05:05:34.808Z,156
2018-09-19T05:06:44.418Z,172
2018-09-19T05:07:54.292Z,188
2018-09-19T05:09:04.155Z,212
2018-09-19T05:10:14.300Z,240
2018-09-19T05:11:24.714Z,276
2018-09-19T05:12:34.705Z,312
2018-09-19T05:13:44.029Z,344
2018-09-19T05:14:53.878Z,372
2018-09-19T05:16:03.724Z,400
2018-09-19T05:17:13.034Z,424
2018-09-19T05:18:22.374Z,444
2018-09-19T05:19:32.553Z,472
2018-09-19T05:20:42.134Z,500
2018-09-19T05:21:51.988Z,524
2018-09-19T05:23:01.560Z,548
2018-09-19T05:24:11.412Z,572
2018-09-19T05:25:20.986Z,588
2018-09-19T05:26:30.896Z,612
2018-09-19T05:27:41.023Z,640
2018-09-19T05:28:51.136Z,668
2018-09-19T05:30:00.721Z,692
2018-09-19T05:31:10.579Z,708
2018-09-19T05:32:20.695Z,724
2018-09-19T05:33:30.540Z,736
2018-09-19T05:34:40.388Z,756
2018-09-19T05:35:49.964Z,780
2018-09-19T05:36:59.815Z,812
2018-09-19T05:38:09.403Z,840
2018-09-19T05:39:19.516Z,864
2018-09-19T05:40:29.364Z,884
2018-09-19T05:41:38.954Z,908
2018-09-19T05:42:48.529Z,932
2018-09-19T05:43:58.640Z,952
2018-09-19T05:45:08.490Z,968
2018-09-19T05:46:18.803Z,976
2018-09-19T05:47:29.289Z,988
2018-09-19T05:48:39.135Z,1000
2018-09-19T05:49:49.299Z,1024
2018-09-19T05:50:59.144Z,1044
2018-09-19T05:52:08.722Z,1060
2018-09-19T05:53:18.848Z,1068
2018-09-19T05:54:28.935Z,1084
2018-09-19T05:55:38.843Z,1096
2018-09-19T05:56:48.977Z,1104
2018-09-19T05:57:58.825Z,1104
2018-09-19T05:59:08.462Z,1100
2018-09-19T06:00:18.087Z,1108
2018-09-19T06:01:28.263Z,1100
2018-09-19T06:02:38.172Z,1088
2018-09-19T06:03:48.311Z,1100
2018-09-19T06:04:58.701Z,1128
2018-09-19T06:06:09.049Z,1180
2018-09-19T06:07:19.202Z,1208
2018-09-19T06:08:29.312Z,1220
2018-09-19T06:09:39.159Z,1240
2018-09-19T06:10:49.016Z,1240
2018-09-19T06:11:58.864Z,1244
2018-09-19T06:13:09.146Z,1248
2018-09-19T06:14:19.037Z,1264
2018-09-19T06:15:28.902Z,1288
2018-09-19T06:16:39.511Z,1316
2018-09-19T06:17:49.644Z,1356
2018-09-19T06:18:59.492Z,1396
2018-09-19T06:20:09.612Z,1452
2018-09-19T06:21:19.459Z,1464
2018-09-19T06:22:29.356Z,1500
2018-09-19T06:23:39.215Z,1524
2018-09-19T06:24:49.060Z,1584
2018-09-19T06:25:58.372Z,1608
2018-09-19T06:27:08.606Z,1648
2018-09-19T06:28:18.499Z,1696
2018-09-19T06:29:28.350Z,1748
2018-09-19T06:30:38.470Z,1780
2018-09-19T06:31:48.599Z,1800
2018-09-19T06:32:59.000Z,1788
2018-09-19T06:34:09.427Z,1796
2018-09-19T06:35:19.276Z,1772
2018-09-19T06:36:29.396Z,1808
2018-09-19T06:37:39.558Z,1836
2018-09-19T06:38:49.161Z,1852
2018-09-19T06:39:59.510Z,1876
2018-09-19T06:41:09.677Z,1888
2018-09-19T06:42:19.528Z,1908
2018-09-19T06:43:28.830Z,1924
2018-09-19T06:44:38.955Z,1928
2018-09-19T06:45:49.157Z,1936
2018-09-19T06:46:58.967Z,1944
2018-09-19T06:48:09.006Z,1972
2018-09-19T06:49:18.901Z,1980
2018-09-19T06:50:28.748Z,1988
2018-09-19T06:51:38.325Z,2000
2018-09-19T06:52:48.188Z,2012
2018-09-19T06:53:58.312Z,2020
2018-09-19T06:55:08.480Z,2028
2018-09-19T06:56:18.601Z,2040
2018-09-19T06:57:28.197Z,2048
2018-09-19T06:58:37.773Z,2056
2018-09-19T06:59:47.994Z,2064
2018-09-19T07:00:58.244Z,2072
2018-09-19T07:02:07.851Z,2080
2018-09-19T07:03:18.028Z,2092
2018-09-19T07:04:27.636Z,2100
2018-09-19T07:05:37.786Z,2112
2018-09-19T07:06:47.398Z,2120
2018-09-19T07:07:57.251Z,2132
2018-09-19T07:09:07.102Z,2144
2018-09-19T07:10:16.682Z,2152
2018-09-19T07:11:26.802Z,2160
2018-09-19T07:12:36.923Z,2172
2018-09-19T07:13:46.769Z,2180
2018-09-19T07:14:57.170Z,2192
2018-09-19T07:16:07.010Z,2204
2018-09-19T07:17:17.135Z,2216
2018-09-19T07:18:26.983Z,2224
2018-09-19T07:19:36.311Z,2240
2018-09-19T07:20:46.432Z,2260
2018-09-19T07:21:56.004Z,2284
2018-09-19T07:23:05.862Z,2308
2018-09-19T07:24:15.472Z,2340
2018-09-19T07:25:25.311Z,2380
2018-09-19T07:26:34.949Z,2420
2018-09-19T07:27:44.548Z,2456
2018-09-19T07:28:54.410Z,2488
2018-09-19T07:30:04.223Z,2516
2018-09-19T07:31:14.428Z,2540
2018-09-19T07:32:23.817Z,2568
2018-09-19T07:33:33.395Z,2600
2018-09-19T07:34:43.582Z,2620
2018-09-19T07:35:53.780Z,2668
2018-09-19T07:37:03.894Z,2700
2018-09-19T07:38:13.739Z,2684
2018-09-19T07:39:23.122Z,2608
2018-09-19T07:40:32.906Z,2528
2018-09-19T07:41:43.045Z,2452
2018-09-19T07:42:52.617Z,2392
2018-09-19T07:44:02.471Z,2348
2018-09-19T07:45:12.358Z,2296
2018-09-19T07:46:22.021Z,2260
2018-09-19T07:47:31.956Z,2240
2018-09-19T07:48:41.556Z,2224
2018-09-19T07:49:51.136Z,2204
2018-09-19T07:51:01.271Z,2168
2018-09-19T07:52:10.887Z,2128
2018-09-19T07:53:20.742Z,2136
2018-09-19T07:54:30.733Z,2156
2018-09-19T07:55:40.990Z,2184
2018-09-19T07:56:51.068Z,2200
2018-09-19T07:58:00.875Z,2236
2018-09-19T07:59:11.008Z,2284
2018-09-19T08:00:20.884Z,2292
2018-09-19T08:01:30.757Z,2300
2018-09-19T08:02:40.888Z,2312
2018-09-19T08:03:51.019Z,2304
2018-09-19T08:05:00.594Z,2336
2018-09-19T08:06:10.490Z,2348
2018-09-19T08:07:20.071Z,2352
2018-09-19T08:08:29.931Z,2360
2018-09-19T08:09:39.774Z,2360
2018-09-19T08:10:49.628Z,2368
2018-09-19T08:11:59.510Z,2376
2018-09-19T08:13:09.384Z,2384
2018-09-19T08:14:19.252Z,2388
2018-09-19T08:15:29.391Z,2396
2018-09-19T08:16:38.992Z,2400
2018-09-19T08:17:49.154Z,2400
2018-09-19T08:18:59.346Z,2400
2018-09-19T08:20:08.936Z,2404
2018-09-19T08:21:19.061Z,2408
2018-09-19T08:22:28.714Z,2412
2018-09-19T08:23:38.936Z,2416
2018-09-19T08:24:49.112Z,2420
2018-09-19T08:25:58.957Z,2416
2018-09-19T08:27:08.808Z,2420
2018-09-19T08:28:18.955Z,2424
2018-09-19T08:29:28.524Z,2428
2018-09-19T08:30:38.663Z,2432
2018-09-19T08:31:48.520Z,2436
2018-09-19T08:32:58.675Z,2444
2018-09-19T08:34:08.772Z,2448
2018-09-19T08:35:18.893Z,2452
2018-09-19T08:36:28.803Z,2456
2018-09-19T08:37:38.386Z,2460
2018-09-19T08:38:48.508Z,2468
2018-09-19T08:39:58.355Z,2476
2018-09-19T08:41:08.512Z,2484
2018-09-19T08:42:18.368Z,2492
2018-09-19T08:43:28.241Z,2496
2018-09-19T08:44:38.098Z,2500
2018-09-19T08:45:47.676Z,2504
2018-09-19T08:46:57.009Z,2512
2018-09-19T08:48:06.864Z,2512
2018-09-19T08:49:16.465Z,2516
2018-09-19T08:50:26.404Z,2524
2018-09-19T08:51:36.319Z,2528
2018-09-19T08:52:45.912Z,2528
2018-09-19T08:53:55.491Z,2540
2018-09-19T08:55:05.338Z,2548
2018-09-19T08:56:15.485Z,2556
2018-09-19T08:57:25.377Z,2568
2018-09-19T08:58:35.555Z,2576
2018-09-19T08:59:45.464Z,2588
2018-09-19T09:00:55.583Z,2596
2018-09-19T09:02:05.434Z,2612
2018-09-19T09:03:15.627Z,2632
2018-09-19T09:04:25.757Z,2652
2018-09-19T09:05:36.082Z,2680
2018-09-19T09:06:46.222Z,2736
2018-09-19T09:07:56.427Z,2872
2018-09-19T09:09:06.293Z,3076
2018-09-19T09:10:16.154Z,3284
2018-09-19T09:11:25.515Z,3416
2018-09-19T09:12:35.541Z,3560
2018-09-19T09:13:45.821Z,3664
2018-09-19T09:14:55.944Z,3688
2018-09-19T09:16:05.532Z,3492
2018-09-19T09:17:15.716Z,3420
2018-09-19T09:18:25.580Z,3780
2018-09-19T09:19:34.883Z,4808
2018-09-19T09:20:44.526Z,5248
2018-09-19T09:21:53.844Z,4456
2018-09-19T09:23:03.968Z,3372
2018-09-19T09:24:13.547Z,2976
2018-09-19T09:25:23.406Z,2848
2018-09-19T09:26:33.269Z,2856
2018-09-19T09:27:43.477Z,2940
2018-09-19T09:28:53.348Z,2936
2018-09-19T09:30:03.208Z,2936
2018-09-19T09:31:13.327Z,2952
2018-09-19T09:32:23.064Z,2996
2018-09-19T09:33:32.654Z,2996
2018-09-19T09:34:42.233Z,2936
2018-09-19T09:35:51.817Z,2980
2018-09-19T09:37:01.152Z,2976
2018-09-19T09:38:10.736Z,3032
2018-09-19T09:39:20.696Z,3060
2018-09-19T09:40:31.074Z,3088
2018-09-19T09:41:41.140Z,3144
2018-09-19T09:42:50.737Z,3180
2018-09-19T09:44:00.957Z,3204
2018-09-19T09:45:10.825Z,3216
2018-09-19T09:46:20.404Z,3244
2018-09-19T09:47:30.307Z,3248
2018-09-19T09:48:39.888Z,3252
2018-09-19T09:49:49.745Z,3280
2018-09-19T09:50:59.865Z,3316
2018-09-19T09:52:09.749Z,3340
2018-09-19T09:53:20.249Z,3364
2018-09-19T09:54:30.193Z,3416
2018-09-19T09:55:40.320Z,3464
2018-09-19T09:56:50.464Z,3508
2018-09-19T09:58:00.600Z,3536
2018-09-19T09:59:10.454Z,3560
2018-09-19T10:00:20.570Z,3560
2018-09-19T10:01:30.699Z,3548
2018-09-19T10:02:40.002Z,3540
2018-09-19T10:03:49.905Z,3564
2018-09-19T10:05:00.016Z,3612
2018-09-19T10:06:09.870Z,3588
2018-09-19T10:07:20.000Z,3640
2018-09-19T10:08:29.851Z,3716
2018-09-19T10:09:39.154Z,3768
2018-09-19T10:10:49.004Z,3896
2018-09-19T10:11:59.131Z,4060
2018-09-19T10:13:09.259Z,4092
2018-09-19T10:14:18.827Z,3980
2018-09-19T10:15:28.411Z,4136
2018-09-19T10:16:38.303Z,4156
2018-09-19T10:17:48.424Z,4176
2018-09-19T10:18:58.555Z,4184
2018-09-19T10:20:08.435Z,4160
2018-09-19T10:21:18.287Z,4160
2018-09-19T10:22:28.410Z,4116
2018-09-19T10:23:38.522Z,4064
2018-09-19T10:24:48.103Z,4024
2018-09-19T10:25:57.950Z,4020
2018-09-19T10:27:07.537Z,4028
2018-09-19T10:28:17.388Z,4104
2018-09-19T10:29:27.276Z,4160
2018-09-19T10:30:36.913Z,4192
2018-09-19T10:31:47.030Z,4292
2018-09-19T10:32:56.341Z,4428
2018-09-19T10:34:06.188Z,4588
2018-09-19T10:35:15.891Z,4640
2018-09-19T10:36:26.109Z,4656
2018-09-19T10:37:35.702Z,4756
2018-09-19T10:38:45.553Z,5376
2018-09-19T10:39:55.395Z,6256
2018-09-19T10:41:05.513Z,5584
2018-09-19T10:42:15.419Z,4868
2018-09-19T10:43:25.508Z,4996
2018-09-19T10:44:35.146Z,4948
2018-09-19T10:45:45.281Z,4792
2018-09-19T10:46:55.129Z,4640
2018-09-19T10:48:04.977Z,4600
2018-09-19T10:49:14.828Z,4588
2018-09-19T10:50:24.961Z,4548
2018-09-19T10:51:35.089Z,4484
2018-09-19T10:52:44.936Z,4480
2018-09-19T10:53:55.050Z,4540
2018-09-19T10:55:04.900Z,4604
2018-09-19T10:56:14.758Z,4652
2018-09-19T10:57:24.618Z,4588
2018-09-19T10:58:33.933Z,4676
2018-09-19T10:59:43.780Z,4788
2018-09-19T11:00:53.656Z,4832
2018-09-19T11:02:03.500Z,4780
2018-09-19T11:03:13.351Z,4916
2018-09-19T11:04:23.468Z,5036
2018-09-19T11:05:33.047Z,5184
2018-09-19T11:06:43.163Z,5008
2018-09-19T11:07:53.284Z,5304
2018-09-19T11:09:02.592Z,5340
2018-09-19T11:10:12.501Z,5420
2018-09-19T11:11:22.642Z,5396
2018-09-19T11:12:32.512Z,5440
2018-09-19T11:13:42.630Z,5836
2018-09-19T11:14:52.476Z,6324
2018-09-19T11:16:02.323Z,6400
2018-09-19T11:17:12.438Z,6724
2018-09-19T11:18:22.288Z,7024
2018-09-19T11:19:32.142Z,6792
2018-09-19T11:20:41.718Z,6384
2018-09-19T11:21:51.598Z,6576
2018-09-19T11:23:01.445Z,6168
2018-09-19T11:24:11.056Z,6232
2018-09-19T11:25:20.937Z,6540
2018-09-19T11:26:30.857Z,6928
2018-09-19T11:27:41.050Z,7348
2018-09-19T11:28:50.905Z,7604
2018-09-19T11:30:01.021Z,7856
2018-09-19T11:31:10.867Z,8424
2018-09-19T11:32:20.167Z,8048
2018-09-19T11:33:30.323Z,7912
2018-09-19T11:34:40.185Z,7504
2018-09-19T11:35:50.305Z,7392
2018-09-19T11:37:00.143Z,6488
2018-09-19T11:38:10.224Z,7240
2018-09-19T11:39:19.802Z,7608
2018-09-19T11:40:29.382Z,7944
2018-09-19T11:41:39.250Z,7728
2018-09-19T11:42:49.365Z,7816
2018-09-19T11:43:58.670Z,7224
2018-09-19T11:45:08.525Z,7012
2018-09-19T11:46:18.645Z,7636
2018-09-19T11:47:28.759Z,7800
2018-09-19T11:48:38.449Z,8360
2018-09-19T11:49:48.370Z,9144
2018-09-19T11:50:58.542Z,19104
2018-09-19T11:52:08.119Z,33440
2018-09-19T11:53:17.710Z,33984
2018-09-19T11:54:27.839Z,40768
2018-09-19T11:55:37.954Z,38944
2018-09-19T11:56:47.542Z,40160
2018-09-19T11:57:57.170Z,35104
2018-09-19T11:59:07.375Z,41408
2018-09-19T12:00:17.537Z,37024
2018-09-19T12:01:27.144Z,39904
2018-09-19T12:02:37.002Z,48096
2018-09-19T12:03:46.857Z,43360
2018-09-19T12:04:56.705Z,30656
2018-09-19T12:06:06.821Z,23264
2018-09-19T12:07:16.222Z,18336
2018-09-19T12:08:25.746Z,24352
2018-09-19T12:09:35.091Z,21120
2018-09-19T12:10:44.681Z,27456
2018-09-19T12:11:54.548Z,17856
2018-09-19T12:13:04.395Z,15488
2018-09-19T12:14:14.354Z,17952
2018-09-19T12:15:23.395Z,8744
2018-09-19T12:16:33.241Z,9500
2018-09-19T12:17:43.360Z,10296
2018-09-19T12:18:53.211Z,10920
2018-09-19T12:20:03.327Z,10324
2018-09-19T12:21:13.182Z,27232
2018-09-19T12:22:22.760Z,25824
2018-09-19T12:23:32.619Z,10376
2018-09-19T12:24:42.466Z,10040
2018-09-19T12:25:52.201Z,10804
2018-09-19T12:27:01.781Z,31488
2018-09-19T12:28:11.091Z,23520
2018-09-19T12:29:20.403Z,18944
2018-09-19T12:30:30.296Z,14008
2018-09-19T12:31:39.876Z,11132
2018-09-19T12:32:49.959Z,11992
2018-09-19T12:34:00.082Z,16832
2018-09-19T12:35:09.700Z,15008
2018-09-19T12:36:19.552Z,11744
2018-09-19T12:37:29.455Z,13972
2018-09-19T12:38:39.302Z,15196
2018-09-19T12:39:49.300Z,13192
2018-09-19T12:40:59.418Z,12564
2018-09-19T12:42:09.308Z,17952
2018-09-19T12:43:18.933Z,12584
2018-09-19T12:44:28.781Z,17152
2018-09-19T12:45:38.364Z,11676
2018-09-19T12:46:48.515Z,11188
2018-09-19T12:47:58.098Z,12840
2018-09-19T12:49:07.634Z,13280
2018-09-19T12:50:17.880Z,13628
2018-09-19T12:51:27.514Z,14648
2018-09-19T12:52:36.551Z,12892
2018-09-19T12:53:46.399Z,13064
2018-09-19T12:54:56.560Z,17632
2018-09-19T12:56:05.890Z,10180
2018-09-19T12:57:16.010Z,12148
2018-09-19T12:58:25.869Z,14596
2018-09-19T12:59:35.730Z,12592
2018-09-19T13:00:45.578Z,10760
2018-09-19T13:01:55.189Z,9892
2018-09-19T13:03:05.339Z,9952
2018-09-19T13:04:15.216Z,11140
2018-09-19T13:05:24.801Z,13040
2018-09-19T13:06:34.920Z,15236
2018-09-19T13:07:44.542Z,16704
2018-09-19T13:08:54.797Z,14520
2018-09-19T13:10:04.394Z,13432
2018-09-19T13:11:13.745Z,12184
2018-09-19T13:12:23.649Z,14784
2018-09-19T13:13:33.507Z,14780
2018-09-19T13:14:43.082Z,13288
2018-09-19T13:15:53.201Z,13932
2018-09-19T13:17:03.052Z,11608
2018-09-19T13:18:13.178Z,11164
2018-09-19T13:19:23.080Z,13040
2018-09-19T13:20:33.213Z,13928
2018-09-19T13:21:42.818Z,13708
2018-09-19T13:22:52.440Z,12024
2018-09-19T13:24:02.592Z,11804
2018-09-19T13:25:11.896Z,11120
2018-09-19T13:26:21.750Z,13368
2018-09-19T13:27:31.897Z,15108
2018-09-19T13:28:41.751Z,15256
2018-09-19T13:29:51.653Z,14492
2018-09-19T13:31:01.498Z,13864
2018-09-19T13:32:11.084Z,10544
2018-09-19T13:33:20.933Z,10616
2018-09-19T13:34:30.523Z,14864
2018-09-19T13:35:40.409Z,14024
2018-09-19T13:36:50.255Z,13516
2018-09-19T13:38:00.308Z,12164
2018-09-19T13:39:09.882Z,10388
2018-09-19T13:40:19.189Z,11736
2018-09-19T13:41:29.314Z,13140
2018-09-19T13:42:39.438Z,13356
2018-09-19T13:43:49.555Z,14912
2018-09-19T13:44:59.131Z,15032
2018-09-19T13:46:09.279Z,19296
2018-09-19T13:47:18.859Z,23488
2018-09-19T13:48:28.436Z,15248
2018-09-19T13:49:38.554Z,11640
2018-09-19T13:50:48.134Z,12792
2018-09-19T13:51:57.171Z,12556
2018-09-19T13:53:06.751Z,10460
2018-09-19T13:54:16.059Z,10964
2018-09-19T13:55:25.952Z,11360
2018-09-19T13:56:35.580Z,11712
2018-09-19T13:57:45.723Z,13788
2018-09-19T13:58:55.768Z,49088
2018-09-19T14:00:05.934Z,50176
2018-09-19T14:01:15.782Z,25664
2018-09-19T14:02:25.366Z,48192
2018-09-19T14:03:35.252Z,49664
2018-09-19T14:04:45.110Z,46272
2018-09-19T14:05:54.698Z,50400
2018-09-19T14:07:04.865Z,60064
2018-09-19T14:08:14.988Z,58944
2018-09-19T14:09:24.569Z,20128
2018-09-19T14:10:34.693Z,15480
2018-09-19T14:11:45.084Z,37664
2018-09-19T14:12:55.398Z,40736
2018-09-19T14:14:04.716Z,45856
2018-09-19T14:15:14.572Z,55840
2018-09-19T14:16:24.486Z,60352
2018-09-19T14:17:34.338Z,57248
2018-09-19T14:18:44.197Z,53600
2018-09-19T14:19:54.053Z,57504
2018-09-19T14:21:03.372Z,61248
2018-09-19T14:22:13.548Z,61152
2018-09-19T14:23:23.407Z,58496
2018-09-19T14:24:32.995Z,25504
2018-09-19T14:25:42.579Z,53600
2018-09-19T14:26:52.445Z,29824
2018-09-19T14:28:02.636Z,33440
2018-09-19T14:29:12.223Z,31840
2018-09-19T14:30:21.844Z,15296
2018-09-19T14:31:31.971Z,18976
2018-09-19T14:32:42.109Z,23264
2018-09-19T14:33:51.705Z,13120
2018-09-19T14:35:01.843Z,11212
2018-09-19T14:36:11.700Z,11384
2018-09-19T14:37:21.560Z,10708
2018-09-19T14:38:31.423Z,11152
2018-09-19T14:39:41.833Z,9652
2018-09-19T14:40:51.952Z,9804
2018-09-19T14:42:01.805Z,9128
2018-09-19T14:43:11.391Z,9036
2018-09-19T14:44:21.245Z,8416
2018-09-19T14:45:31.381Z,9080
2018-09-19T14:46:41.226Z,9216
2018-09-19T14:47:51.106Z,9960
2018-09-19T14:49:01.618Z,10600
2018-09-19T14:50:11.467Z,19104
2018-09-19T14:51:21.369Z,30976
2018-09-19T14:52:30.956Z,15488
2018-09-19T14:53:40.263Z,21664
2018-09-19T14:54:50.382Z,13148
2018-09-19T14:55:59.997Z,33760
2018-09-19T14:57:09.574Z,14440
2018-09-19T14:58:19.170Z,10152
2018-09-19T14:59:28.750Z,16552
2018-09-19T15:00:38.365Z,18176
2018-09-19T15:01:48.150Z,11556
2018-09-19T15:02:57.732Z,10724
2018-09-19T15:04:07.313Z,10052
2018-09-19T15:05:17.164Z,11624
2018-09-19T15:06:27.014Z,11972
2018-09-19T15:07:36.598Z,11460
2018-09-19T15:08:46.756Z,15040
2018-09-19T15:09:56.612Z,16276
2018-09-19T15:11:06.491Z,14624
2018-09-19T15:12:16.347Z,9788
2018-09-19T15:13:26.202Z,14288
2018-09-19T15:14:35.512Z,9280
2018-09-19T15:15:45.395Z,8152
2018-09-19T15:16:54.980Z,8356
2018-09-19T15:18:05.305Z,8916
2018-09-19T15:19:15.217Z,10312
2018-09-19T15:20:25.344Z,9952
2018-09-19T15:21:34.920Z,9064
2018-09-19T15:22:44.768Z,8664
2018-09-19T15:23:55.126Z,8952
2018-09-19T15:25:04.715Z,10656
2018-09-19T15:26:14.032Z,26944
2018-09-19T15:27:23.351Z,20416
2018-09-19T15:28:33.706Z,27328
2018-09-19T15:29:43.171Z,26080
2018-09-19T15:30:53.290Z,33504
2018-09-19T15:32:03.406Z,37152
2018-09-19T15:33:13.308Z,35968
2018-09-19T15:34:22.616Z,24352
2018-09-19T15:35:32.740Z,11332
2018-09-19T15:36:42.871Z,9532
2018-09-19T15:37:52.456Z,38368
2018-09-19T15:39:02.616Z,43232
2018-09-19T15:40:12.192Z,46400
2018-09-19T15:41:22.310Z,44224
2018-09-19T15:42:32.362Z,39328
2018-09-19T15:43:42.446Z,43904
2018-09-19T15:44:51.795Z,36032
2018-09-19T15:46:01.660Z,30656
2018-09-19T15:47:11.561Z,16352
2018-09-19T15:48:21.250Z,9800
2018-09-19T15:49:30.991Z,10948
2018-09-19T15:50:41.210Z,10040
2018-09-19T15:51:50.871Z,10736
2018-09-19T15:53:01.037Z,7876
2018-09-19T15:54:10.887Z,8524